Time,TemperatureF,DewpointF,PressureIn,WindDirection,WindDirectionDegrees,WindSpeedMPH,WindSpeedGustMPH,Humidity,HourlyPrecipIn,Conditions,Clouds,dailyrainin,SoftwareType,DateUTC
2013-02-18 00:04:00,38.5,22.4,29.80,SSW,210,3.6,4.0,52,0.00,,---,0.00,VWS V14.01,2013-02-18 08:04:00,
2013-02-18 00:10:00,38.5,22.4,29.80,SW,214,3.1,4.0,52,0.00,,---,0.00,VWS V14.01,2013-02-18 08:10:00,
2013-02-18 00:16:00,38.5,22.4,29.77,SSW,204,3.1,4.0,52,0.00,,---,0.00,VWS V14.01,2013-02-18 08:16:00,
2013-02-18 00:21:00,38.5,22.4,29.77,SSW,203,3.1,4.0,52,0.00,,---,0.00,VWS V14.01,2013-02-18 08:21:00,
2013-02-18 00:27:00,38.5,22.4,29.77,South,179,3.1,3.6,52,0.00,,---,0.00,VWS V14.01,2013-02-18 08:27:00,
2013-02-18 00:32:00,38.5,22.9,29.77,SW,218,3.6,4.0,53,0.00,,---,0.00,VWS V14.01,2013-02-18 08:32:00,
2013-02-18 00:38:00,38.3,22.7,29.77,SSW,193,3.1,6.3,53,0.00,,---,0.00,VWS V14.01,2013-02-18 08:38:00,
2013-02-18 00:43:00,38.3,22.7,29.77,SSW,209,3.1,3.1,53,0.00,,---,0.00,VWS V14.01,2013-02-18 08:43:00,
2013-02-18 00:49:00,38.1,22.5,29.77,SSE,157,2.7,4.0,53,0.00,,---,0.00,VWS V14.01,2013-02-18 08:49:00,
2013-02-18 00:55:00,37.9,22.8,29.77,SSW,209,2.2,3.6,54,0.00,,---,0.00,VWS V14.01,2013-02-18 08:55:00,
2013-02-18 01:01:00,37.9,22.8,29.77,South,184,0.0,2.7,54,0.00,,---,0.00,VWS V14.01,2013-02-18 09:01:00,
2013-02-18 01:07:00,37.8,23.1,29.77,South,180,2.2,3.6,55,0.00,,---,0.00,VWS V14.01,2013-02-18 09:07:00,
2013-02-18 01:13:00,37.6,22.9,29.77,South,189,3.1,3.6,55,0.00,,---,0.00,VWS V14.01,2013-02-18 09:13:00,
2013-02-18 01:18:00,37.6,22.9,29.77,South,189,2.7,3.1,55,0.00,,---,0.00,VWS V14.01,2013-02-18 09:18:00,
2013-02-18 01:24:00,37.6,23.3,29.77,South,184,2.7,2.7,56,0.00,,---,0.00,VWS V14.01,2013-02-18 09:24:00,
2013-02-18 01:30:00,37.4,23.1,29.74,SSW,204,4.0,4.0,56,0.00,,---,0.00,VWS V14.01,2013-02-18 09:30:00,
2013-02-18 01:35:00,37.4,23.6,29.74,SSW,212,3.6,3.6,57,0.00,,---,0.00,VWS V14.01,2013-02-18 09:35:00,
2013-02-18 01:40:00,37.4,23.6,29.74,SSW,200,3.6,3.6,57,0.00,,---,0.00,VWS V14.01,2013-02-18 09:40:00,
2013-02-18 01:46:00,37.4,24.0,29.74,SSW,211,3.1,4.0,58,0.00,,---,0.00,VWS V14.01,2013-02-18 09:46:00,
2013-02-18 01:52:00,37.6,24.2,29.74,SSW,206,2.7,3.6,58,0.00,,---,0.00,VWS V14.01,2013-02-18 09:52:00,
2013-02-18 01:57:00,37.6,24.2,29.74,SSW,204,4.9,5.8,58,0.00,,---,0.00,VWS V14.01,2013-02-18 09:57:00,
2013-02-18 02:03:00,37.6,24.2,29.74,SSW,203,3.6,3.6,58,0.00,,---,0.00,VWS V14.01,2013-02-18 10:03:00,
2013-02-18 02:08:00,37.8,24.3,29.74,SSW,207,3.6,3.6,58,0.00,,---,0.00,VWS V14.01,2013-02-18 10:08:00,
2013-02-18 02:13:00,37.8,24.3,29.74,SSW,202,3.1,4.0,58,0.00,,---,0.00,VWS V14.01,2013-02-18 10:13:00,
2013-02-18 02:19:00,37.8,23.9,29.74,SSW,204,3.1,3.6,57,0.00,,---,0.00,VWS V14.01,2013-02-18 10:19:00,
2013-02-18 02:24:00,37.6,23.7,29.74,SSW,204,0.0,0.0,57,0.00,,---,0.00,VWS V14.01,2013-02-18 10:24:00,
2013-02-18 02:30:00,37.6,23.7,29.74,SSW,204,0.0,2.7,57,0.00,,---,0.00,VWS V14.01,2013-02-18 10:30:00,
2013-02-18 02:35:00,37.6,24.2,29.74,SSW,203,0.0,2.2,58,0.00,,---,0.00,VWS V14.01,2013-02-18 10:35:00,
2013-02-18 02:41:00,37.6,23.7,29.74,SSW,203,3.1,4.0,57,0.00,,---,0.00,VWS V14.01,2013-02-18 10:41:00,
2013-02-18 02:47:00,37.6,22.9,29.74,SSW,212,3.6,5.4,55,0.00,,---,0.00,VWS V14.01,2013-02-18 10:47:00,
2013-02-18 02:52:00,37.6,22.5,29.74,SSW,194,2.2,2.7,54,0.00,,---,0.00,VWS V14.01,2013-02-18 10:52:00,
2013-02-18 02:58:00,37.6,22.5,29.74,SSW,199,3.6,4.0,54,0.00,,---,0.00,VWS V14.01,2013-02-18 10:58:00,
2013-02-18 03:03:00,37.6,22.0,29.71,SSW,211,3.1,3.6,53,0.00,,---,0.00,VWS V14.01,2013-02-18 11:03:00,
2013-02-18 03:08:00,37.6,22.0,29.71,SSW,205,3.1,4.9,53,0.00,,---,0.00,VWS V14.01,2013-02-18 11:08:00,
2013-02-18 03:14:00,37.6,21.6,29.71,SSW,205,2.2,3.6,52,0.00,,---,0.00,VWS V14.01,2013-02-18 11:14:00,
2013-02-18 03:20:00,37.6,21.1,29.71,SSW,207,3.6,5.4,51,0.00,,---,0.00,VWS V14.01,2013-02-18 11:20:00,
2013-02-18 03:25:00,37.8,20.8,29.71,SSW,194,3.6,5.4,50,0.00,,---,0.00,VWS V14.01,2013-02-18 11:25:00,
2013-02-18 03:30:00,37.6,20.6,29.71,SW,215,3.6,4.9,50,0.00,,---,0.00,VWS V14.01,2013-02-18 11:30:00,
2013-02-18 03:36:00,37.6,20.6,29.71,SSW,205,3.6,5.8,50,0.00,,---,0.00,VWS V14.01,2013-02-18 11:36:00,
2013-02-18 03:41:00,37.6,20.6,29.71,SSW,204,4.5,4.9,50,0.00,,---,0.00,VWS V14.01,2013-02-18 11:41:00,
2013-02-18 03:46:00,37.6,20.6,29.71,SSW,197,3.1,5.4,50,0.00,,---,0.00,VWS V14.01,2013-02-18 11:46:00,
2013-02-18 03:51:00,37.4,20.9,29.71,SSW,202,4.0,4.9,51,0.00,,---,0.00,VWS V14.01,2013-02-18 11:51:00,
2013-02-18 03:56:00,37.4,20.9,29.71,SSW,205,3.6,5.4,51,0.00,,---,0.00,VWS V14.01,2013-02-18 11:56:00,
2013-02-18 04:02:00,37.4,21.4,29.71,SSW,204,2.7,4.0,52,0.00,,---,0.00,VWS V14.01,2013-02-18 12:02:00,
2013-02-18 04:07:00,37.4,21.4,29.71,SSW,208,4.0,4.0,52,0.00,,---,0.00,VWS V14.01,2013-02-18 12:07:00,
2013-02-18 04:12:00,37.2,21.7,29.71,SSW,202,3.1,4.0,53,0.00,,---,0.00,VWS V14.01,2013-02-18 12:12:00,
2013-02-18 04:17:00,37.0,22.0,29.71,SSW,198,4.0,4.0,54,0.00,,---,0.00,VWS V14.01,2013-02-18 12:17:00,
2013-02-18 04:23:00,37.0,21.1,29.71,SSW,201,3.1,4.9,52,0.00,,---,0.00,VWS V14.01,2013-02-18 12:23:00,
2013-02-18 04:29:00,37.0,21.1,29.71,SSW,203,3.1,4.0,52,0.00,,---,0.00,VWS V14.01,2013-02-18 12:29:00,
2013-02-18 04:34:00,37.0,21.5,29.71,SSW,195,4.0,4.0,53,0.00,,---,0.00,VWS V14.01,2013-02-18 12:34:00,
2013-02-18 04:39:00,36.9,21.3,29.71,SSW,200,3.6,3.6,53,0.00,,---,0.00,VWS V14.01,2013-02-18 12:39:00,
2013-02-18 04:44:00,36.9,21.3,29.68,SSW,205,3.1,4.9,53,0.00,,---,0.00,VWS V14.01,2013-02-18 12:44:00,
2013-02-18 04:49:00,36.7,21.6,29.68,SSW,207,3.1,4.0,54,0.00,,---,0.00,VWS V14.01,2013-02-18 12:49:00,
2013-02-18 04:55:00,36.7,22.5,29.68,SSW,201,3.6,4.0,56,0.00,,---,0.00,VWS V14.01,2013-02-18 12:55:00,
2013-02-18 05:00:00,36.5,23.1,29.68,SSW,200,3.1,3.1,58,0.00,,---,0.00,VWS V14.01,2013-02-18 13:00:00,
2013-02-18 05:05:00,36.5,24.7,29.68,SSW,202,4.0,4.0,62,0.00,,---,0.00,VWS V14.01,2013-02-18 13:05:00,
2013-02-18 05:11:00,36.3,25.7,29.68,SSW,205,3.1,3.6,65,0.00,,---,0.00,VWS V14.01,2013-02-18 13:11:00,
2013-02-18 05:16:00,36.5,25.1,29.68,South,182,3.6,5.4,63,0.00,,---,0.00,VWS V14.01,2013-02-18 13:16:00,
2013-02-18 05:21:00,36.5,23.5,29.68,SSW,211,3.6,4.9,59,0.00,,---,0.00,VWS V14.01,2013-02-18 13:21:00,
2013-02-18 05:26:00,36.7,22.5,29.68,SSW,206,4.9,5.4,56,0.00,,---,0.00,VWS V14.01,2013-02-18 13:26:00,
2013-02-18 05:32:00,36.7,21.6,29.68,SSW,206,4.0,4.0,54,0.00,,---,0.00,VWS V14.01,2013-02-18 13:32:00,
2013-02-18 05:37:00,36.7,21.6,29.68,SSW,192,3.1,3.1,54,0.00,,---,0.00,VWS V14.01,2013-02-18 13:37:00,
2013-02-18 05:43:00,36.7,21.6,29.68,SSW,207,3.6,3.6,54,0.00,,---,0.00,VWS V14.01,2013-02-18 13:43:00,
2013-02-18 05:48:00,36.7,22.5,29.68,SSW,206,3.6,3.6,56,0.00,,---,0.00,VWS V14.01,2013-02-18 13:48:00,
2013-02-18 05:53:00,36.7,23.3,29.68,SSE,167,2.7,3.1,58,0.00,,---,0.00,VWS V14.01,2013-02-18 13:53:00,
2013-02-18 05:59:00,36.5,23.1,29.65,SSW,202,2.7,3.6,58,0.00,,---,0.00,VWS V14.01,2013-02-18 13:59:00,
2013-02-18 06:05:00,36.3,23.8,29.65,SSW,210,4.9,5.4,60,0.00,,---,0.00,VWS V14.01,2013-02-18 14:05:00,
2013-02-18 06:11:00,36.3,23.4,29.65,SSW,207,2.7,4.0,59,0.00,,---,0.00,VWS V14.01,2013-02-18 14:11:00,
2013-02-18 06:17:00,36.1,22.8,29.68,SW,214,4.0,4.0,58,0.00,,---,0.00,VWS V14.01,2013-02-18 14:17:00,
2013-02-18 06:22:00,36.1,22.8,29.68,SSW,196,3.6,4.9,58,0.00,,---,0.00,VWS V14.01,2013-02-18 14:22:00,
2013-02-18 06:28:00,36.1,22.8,29.68,SSW,204,4.0,4.0,58,0.00,,---,0.00,VWS V14.01,2013-02-18 14:28:00,
2013-02-18 06:34:00,36.1,22.4,29.68,SSW,209,3.6,4.0,57,0.00,,---,0.00,VWS V14.01,2013-02-18 14:34:00,
2013-02-18 06:39:00,36.1,22.0,29.68,SSW,206,2.7,4.0,56,0.00,,---,0.00,VWS V14.01,2013-02-18 14:39:00,
2013-02-18 06:45:00,36.1,21.5,29.68,SSW,208,3.6,3.6,55,0.00,,---,0.00,VWS V14.01,2013-02-18 14:45:00,
2013-02-18 06:50:00,36.1,21.1,29.68,SSW,204,3.1,4.0,54,0.00,,---,0.00,VWS V14.01,2013-02-18 14:50:00,
2013-02-18 06:56:00,36.0,21.0,29.68,SSW,203,0.0,2.7,54,0.00,,---,0.00,VWS V14.01,2013-02-18 14:56:00,
2013-02-18 07:01:00,36.0,21.0,29.68,SSW,202,0.0,0.0,54,0.00,,---,0.00,VWS V14.01,2013-02-18 15:01:00,
2013-02-18 07:07:00,36.0,21.0,29.68,SSW,205,3.1,3.1,54,0.00,,---,0.00,VWS V14.01,2013-02-18 15:07:00,
2013-02-18 07:13:00,36.0,21.4,29.68,SSW,202,3.6,3.6,55,0.00,,---,0.00,VWS V14.01,2013-02-18 15:13:00,
2013-02-18 07:19:00,35.8,22.5,29.68,SSW,192,2.2,4.0,58,0.00,,---,0.00,VWS V14.01,2013-02-18 15:19:00,
2013-02-18 07:25:00,35.8,24.0,29.68,SSW,193,0.0,0.0,62,0.00,,---,0.00,VWS V14.01,2013-02-18 15:25:00,
2013-02-18 07:31:00,35.8,24.4,29.65,SSW,195,3.1,3.1,63,0.00,,---,0.00,VWS V14.01,2013-02-18 15:31:00,
2013-02-18 07:36:00,35.8,24.4,29.65,SSW,204,3.1,3.1,63,0.00,,---,0.00,VWS V14.01,2013-02-18 15:36:00,
2013-02-18 07:42:00,35.8,24.8,29.65,SSW,204,2.7,3.1,64,0.00,,---,0.00,VWS V14.01,2013-02-18 15:42:00,
2013-02-18 07:49:00,35.8,24.8,29.68,SSW,204,0.0,0.0,64,0.00,,---,0.00,VWS V14.01,2013-02-18 15:49:00,
2013-02-18 07:55:00,35.8,24.8,29.68,SSW,204,0.0,0.0,64,0.00,,---,0.00,VWS V14.01,2013-02-18 15:55:00,
2013-02-18 08:00:00,36.1,25.1,29.68,SSW,203,0.0,0.0,64,0.00,,---,0.00,VWS V14.01,2013-02-18 16:00:00,
2013-02-18 08:05:00,36.1,25.1,29.68,SSW,204,0.0,0.0,64,0.00,,---,0.00,VWS V14.01,2013-02-18 16:05:00,
2013-02-18 08:11:00,36.1,25.5,29.68,SSW,206,3.6,4.0,65,0.00,,---,0.00,VWS V14.01,2013-02-18 16:11:00,
2013-02-18 08:17:00,36.0,25.4,29.68,SSW,201,2.7,3.1,65,0.00,,---,0.00,VWS V14.01,2013-02-18 16:17:00,
2013-02-18 08:23:00,36.0,25.7,29.68,SSW,203,3.6,4.0,66,0.00,,---,0.00,VWS V14.01,2013-02-18 16:23:00,
2013-02-18 08:28:00,36.1,26.3,29.68,SSW,206,3.6,4.9,67,0.00,,---,0.00,VWS V14.01,2013-02-18 16:28:00,
2013-02-18 08:34:00,36.1,26.6,29.68,SSW,211,3.1,3.6,68,0.00,,---,0.00,VWS V14.01,2013-02-18 16:34:00,
2013-02-18 08:39:00,36.3,26.8,29.68,SSW,192,4.0,4.9,68,0.00,,---,0.00,VWS V14.01,2013-02-18 16:39:00,
2013-02-18 08:45:00,36.3,26.8,29.68,SSW,200,0.0,0.0,68,0.00,,---,0.00,VWS V14.01,2013-02-18 16:45:00,
2013-02-18 08:50:00,36.5,26.6,29.68,South,178,3.6,5.4,67,0.00,,---,0.00,VWS V14.01,2013-02-18 16:50:00,
2013-02-18 08:56:00,36.5,25.9,29.68,South,183,3.6,5.4,65,0.00,,---,0.00,VWS V14.01,2013-02-18 16:56:00,
2013-02-18 09:02:00,36.7,26.0,29.65,South,188,3.6,3.6,65,0.00,,---,0.00,VWS V14.01,2013-02-18 17:02:00,
2013-02-18 09:07:00,36.7,25.7,29.65,SW,225,5.8,6.3,64,0.00,,---,0.00,VWS V14.01,2013-02-18 17:07:00,
2013-02-18 09:13:00,36.9,24.7,29.65,South,179,2.2,3.6,61,0.00,,---,0.00,VWS V14.01,2013-02-18 17:13:00,
2013-02-18 09:18:00,37.0,24.9,29.65,South,190,4.0,4.9,61,0.00,,---,0.00,VWS V14.01,2013-02-18 17:18:00,
2013-02-18 09:24:00,37.2,23.8,29.65,SSE,167,2.7,4.0,58,0.00,,---,0.00,VWS V14.01,2013-02-18 17:24:00,
2013-02-18 09:29:00,37.4,23.1,29.65,SSW,198,2.7,5.8,56,0.00,,---,0.00,VWS V14.01,2013-02-18 17:29:00,
2013-02-18 09:34:00,37.8,23.1,29.65,South,170,3.6,4.9,55,0.00,,---,0.00,VWS V14.01,2013-02-18 17:34:00,
2013-02-18 09:40:00,38.1,22.5,29.65,SW,214,4.0,6.3,53,0.00,,---,0.00,VWS V14.01,2013-02-18 17:40:00,
2013-02-18 09:46:00,38.5,21.9,29.65,South,170,4.0,4.0,51,0.00,,---,0.00,VWS V14.01,2013-02-18 17:46:00,
2013-02-18 09:51:00,38.7,21.6,29.65,South,184,3.6,4.0,50,0.00,,---,0.00,VWS V14.01,2013-02-18 17:51:00,
2013-02-18 09:56:00,38.7,21.2,29.65,SSW,209,2.7,4.9,49,0.00,,---,0.00,VWS V14.01,2013-02-18 17:56:00,
2013-02-18 10:02:00,38.7,21.2,29.65,SSW,210,4.0,5.4,49,0.00,,---,0.00,VWS V14.01,2013-02-18 18:02:00,
2013-02-18 10:08:00,39.0,21.5,29.65,SSW,205,3.6,4.0,49,0.00,,---,0.00,VWS V14.01,2013-02-18 18:08:00,
2013-02-18 10:13:00,39.4,21.3,29.65,South,186,2.2,4.9,48,0.00,,---,0.00,VWS V14.01,2013-02-18 18:13:00,
2013-02-18 10:18:00,39.4,20.8,29.65,South,191,4.0,4.0,47,0.00,,---,0.00,VWS V14.01,2013-02-18 18:18:00,
2013-02-18 10:24:00,39.7,21.2,29.65,SSW,200,2.2,2.7,47,0.00,,---,0.00,VWS V14.01,2013-02-18 18:24:00,
2013-02-18 10:30:00,39.9,20.8,29.65,SSW,199,4.0,4.0,46,0.00,,---,0.00,VWS V14.01,2013-02-18 18:30:00,
2013-02-18 10:36:00,40.1,21.0,29.65,SSW,197,3.6,4.0,46,0.00,,---,0.00,VWS V14.01,2013-02-18 18:36:00,
2013-02-18 10:41:00,40.3,21.2,29.65,SSE,156,2.7,4.0,46,0.00,,---,0.00,VWS V14.01,2013-02-18 18:41:00,
2013-02-18 10:47:00,40.5,21.3,29.65,South,177,4.0,4.9,46,0.00,,---,0.00,VWS V14.01,2013-02-18 18:47:00,
2013-02-18 10:52:00,40.8,21.1,29.65,SE,126,0.0,2.7,45,0.00,,---,0.00,VWS V14.01,2013-02-18 18:52:00,
2013-02-18 10:57:00,41.0,20.2,29.65,South,171,2.7,4.0,43,0.00,,---,0.00,VWS V14.01,2013-02-18 18:57:00,
2013-02-18 11:02:00,41.2,20.4,29.65,South,171,0.0,2.7,43,0.00,,---,0.00,VWS V14.01,2013-02-18 19:02:00,
2013-02-18 11:08:00,41.4,20.6,29.65,South,186,4.0,4.0,43,0.00,,---,0.00,VWS V14.01,2013-02-18 19:08:00,
2013-02-18 11:13:00,41.5,20.7,29.65,South,171,4.0,4.0,43,0.00,,---,0.00,VWS V14.01,2013-02-18 19:13:00,
2013-02-18 11:19:00,41.7,20.9,29.62,South,170,0.0,0.0,43,0.00,,---,0.00,VWS V14.01,2013-02-18 19:19:00,
2013-02-18 11:26:00,42.6,20.6,29.62,North,353,2.7,3.6,41,0.00,,---,0.00,VWS V14.01,2013-02-18 19:26:00,
2013-02-18 11:32:00,42.6,19.4,29.62,WNW,300,0.0,4.0,39,0.00,,---,0.00,VWS V14.01,2013-02-18 19:32:00,
2013-02-18 11:37:00,42.6,20.0,29.62,SSE,148,3.1,3.6,40,0.00,,---,0.00,VWS V14.01,2013-02-18 19:37:00,
2013-02-18 11:42:00,42.6,20.0,29.62,SSE,160,0.0,2.7,40,0.00,,---,0.00,VWS V14.01,2013-02-18 19:42:00,
2013-02-18 11:47:00,42.8,20.2,29.62,East,84,3.6,4.0,40,0.00,,---,0.00,VWS V14.01,2013-02-18 19:47:00,
2013-02-18 11:53:00,43.2,19.9,29.62,ESE,118,0.0,3.1,39,0.00,,---,0.00,VWS V14.01,2013-02-18 19:53:00,
2013-02-18 11:58:00,43.5,20.2,29.62,SSE,162,3.1,4.9,39,0.00,,---,0.00,VWS V14.01,2013-02-18 19:58:00,
2013-02-18 12:03:00,43.5,20.2,29.59,SSE,163,3.6,4.0,39,0.00,,---,0.00,VWS V14.01,2013-02-18 20:03:00,
2013-02-18 12:08:00,43.9,19.9,29.59,South,179,6.3,6.3,38,0.00,,---,0.00,VWS V14.01,2013-02-18 20:08:00,
2013-02-18 12:14:00,43.7,19.8,29.62,SSW,195,3.1,4.9,38,0.00,,---,0.00,VWS V14.01,2013-02-18 20:14:00,
2013-02-18 12:19:00,43.7,19.8,29.62,South,189,5.4,5.4,38,0.00,,---,0.00,VWS V14.01,2013-02-18 20:19:00,
2013-02-18 12:25:00,43.5,19.0,29.62,SSW,209,8.3,8.3,37,0.00,,---,0.00,VWS V14.01,2013-02-18 20:25:00,
2013-02-18 12:30:00,43.5,19.6,29.62,SSW,195,2.7,5.8,38,0.00,,---,0.00,VWS V14.01,2013-02-18 20:30:00,
2013-02-18 12:36:00,43.7,19.8,29.62,South,182,4.0,4.0,38,0.00,,---,0.00,VWS V14.01,2013-02-18 20:36:00,
2013-02-18 12:42:00,43.9,19.9,29.62,SSW,195,2.2,3.6,38,0.00,,---,0.00,VWS V14.01,2013-02-18 20:42:00,
2013-02-18 12:47:00,44.1,20.1,29.62,NW,308,2.7,3.1,38,0.00,,---,0.00,VWS V14.01,2013-02-18 20:47:00,
2013-02-18 12:53:00,43.9,18.7,29.62,SSW,200,6.3,7.6,36,0.00,,---,0.00,VWS V14.01,2013-02-18 20:53:00,
2013-02-18 12:58:00,43.5,18.4,29.62,SSW,193,6.3,8.1,36,0.00,,---,0.00,VWS V14.01,2013-02-18 20:58:00,
2013-02-18 13:04:00,43.3,18.2,29.59,ESE,109,0.0,5.8,36,0.00,,---,0.00,VWS V14.01,2013-02-18 21:04:00,
2013-02-18 13:09:00,43.7,18.5,29.59,SSW,213,3.1,3.6,36,0.00,,---,0.00,VWS V14.01,2013-02-18 21:09:00,
2013-02-18 13:15:00,44.1,18.2,29.59,South,191,7.2,7.2,35,0.00,,---,0.00,VWS V14.01,2013-02-18 21:15:00,
2013-02-18 13:21:00,44.1,18.2,29.59,SSE,147,2.7,3.6,35,0.00,,---,0.00,VWS V14.01,2013-02-18 21:21:00,
2013-02-18 13:26:00,44.6,18.0,29.59,West,271,4.0,4.0,34,0.00,,---,0.00,VWS V14.01,2013-02-18 21:26:00,
2013-02-18 13:32:00,45.0,18.3,29.59,South,177,3.1,4.0,34,0.00,,---,0.00,VWS V14.01,2013-02-18 21:32:00,
2013-02-18 13:38:00,44.8,17.5,29.59,NW,326,4.0,6.3,33,0.00,,---,0.00,VWS V14.01,2013-02-18 21:38:00,
2013-02-18 13:43:00,44.8,17.5,29.59,NNW,338,4.0,5.4,33,0.00,,---,0.00,VWS V14.01,2013-02-18 21:43:00,
2013-02-18 13:49:00,44.6,16.6,29.59,West,277,3.6,4.0,32,0.00,,---,0.00,VWS V14.01,2013-02-18 21:49:00,
2013-02-18 13:54:00,44.6,16.6,29.59,East,97,6.3,6.3,32,0.00,,---,0.00,VWS V14.01,2013-02-18 21:54:00,
2013-02-18 14:00:00,44.8,16.7,29.59,NW,321,3.6,5.8,32,0.00,,---,0.00,VWS V14.01,2013-02-18 22:00:00,
2013-02-18 14:06:00,45.0,16.9,29.59,NW,316,0.0,2.7,32,0.00,,---,0.00,VWS V14.01,2013-02-18 22:06:00,
2013-02-18 14:11:00,45.1,17.1,29.59,WNW,294,3.1,3.6,32,0.00,,---,0.00,VWS V14.01,2013-02-18 22:11:00,
2013-02-18 14:17:00,45.7,16.8,29.59,West,279,2.7,3.1,31,0.00,,---,0.00,VWS V14.01,2013-02-18 22:17:00,
2013-02-18 14:22:00,45.9,17.0,29.59,SSE,166,6.7,6.7,31,0.00,,---,0.00,VWS V14.01,2013-02-18 22:22:00,
2013-02-18 14:28:00,45.7,16.8,29.59,SW,232,0.0,3.1,31,0.00,,---,0.00,VWS V14.01,2013-02-18 22:28:00,
2013-02-18 14:34:00,45.5,15.9,29.56,NNW,328,3.6,5.8,30,0.00,,---,0.00,VWS V14.01,2013-02-18 22:34:00,
2013-02-18 14:39:00,45.5,15.9,29.56,South,185,7.6,7.6,30,0.00,,---,0.00,VWS V14.01,2013-02-18 22:39:00,
2013-02-18 14:44:00,45.3,16.5,29.56,South,187,0.0,0.0,31,0.00,,---,0.00,VWS V14.01,2013-02-18 22:44:00,
2013-02-18 14:49:00,45.1,16.3,29.56,South,182,3.1,6.3,31,0.00,,---,0.00,VWS V14.01,2013-02-18 22:49:00,
2013-02-18 14:55:00,45.1,16.3,29.56,NNW,340,3.6,4.0,31,0.00,,---,0.00,VWS V14.01,2013-02-18 22:55:00,
2013-02-18 15:00:00,45.1,16.3,29.56,South,169,2.2,2.7,31,0.00,,---,0.00,VWS V14.01,2013-02-18 23:00:00,
2013-02-18 15:06:00,45.1,16.3,29.56,NNW,339,2.7,3.1,31,0.00,,---,0.00,VWS V14.01,2013-02-18 23:06:00,
2013-02-18 15:14:00,44.8,16.0,29.56,North,353,3.6,7.2,31,0.00,,---,0.00,VWS V14.01,2013-02-18 23:14:00,
2013-02-18 15:20:00,45.1,16.3,29.56,SSW,205,2.7,2.7,31,0.00,,---,0.00,VWS V14.01,2013-02-18 23:20:00,
2013-02-18 15:25:00,45.3,17.2,29.56,ESE,111,0.0,3.1,32,0.00,,---,0.00,VWS V14.01,2013-02-18 23:25:00,
2013-02-18 15:31:00,45.3,17.2,29.56,SSW,208,0.0,3.6,32,0.00,,---,0.00,VWS V14.01,2013-02-18 23:31:00,
2013-02-18 15:37:00,45.1,17.8,29.56,NW,324,5.4,6.3,33,0.00,,---,0.00,VWS V14.01,2013-02-18 23:37:00,
2013-02-18 15:42:00,44.6,18.0,29.56,NW,320,6.3,6.3,34,0.00,,---,0.00,VWS V14.01,2013-02-18 23:42:00,
2013-02-18 15:48:00,43.9,18.7,29.56,North,357,2.7,5.8,36,0.00,,---,0.00,VWS V14.01,2013-02-18 23:48:00,
2013-02-18 15:53:00,43.3,18.2,29.56,SSW,213,0.0,2.2,36,0.00,,---,0.00,VWS V14.01,2013-02-18 23:53:00,
2013-02-18 15:59:00,43.2,18.7,29.53,South,182,6.3,6.3,37,0.00,,---,0.00,VWS V14.01,2013-02-18 23:59:00,
2013-02-18 16:05:00,43.2,18.0,29.53,SSW,212,4.0,5.8,36,0.00,,---,0.00,VWS V14.01,2013-02-19 00:05:00,
2013-02-18 16:10:00,43.5,19.0,29.53,WNW,292,3.1,5.4,37,0.00,,---,0.00,VWS V14.01,2013-02-19 00:10:00,
2013-02-18 16:16:00,43.5,17.7,29.53,WNW,295,4.0,4.0,35,0.00,,---,0.00,VWS V14.01,2013-02-19 00:16:00,
2013-02-18 16:21:00,43.7,17.9,29.53,SSW,213,2.2,3.6,35,0.00,,---,0.00,VWS V14.01,2013-02-19 00:21:00,
2013-02-18 16:26:00,43.7,17.9,29.53,SSE,165,0.0,4.9,35,0.00,,---,0.00,VWS V14.01,2013-02-19 00:26:00,
2013-02-18 16:31:00,43.7,17.9,29.53,SE,146,3.6,4.0,35,0.00,,---,0.00,VWS V14.01,2013-02-19 00:31:00,
2013-02-18 16:37:00,43.9,18.0,29.53,WSW,250,0.0,3.6,35,0.00,,---,0.00,VWS V14.01,2013-02-19 00:37:00,
2013-02-18 16:42:00,43.9,18.0,29.53,South,175,0.0,3.6,35,0.00,,---,0.00,VWS V14.01,2013-02-19 00:42:00,
2013-02-18 16:48:00,43.9,18.0,29.53,SSE,156,2.2,3.1,35,0.00,,---,0.00,VWS V14.01,2013-02-19 00:48:00,
2013-02-18 16:53:00,43.9,18.0,29.53,South,181,3.1,5.4,35,0.00,,---,0.00,VWS V14.01,2013-02-19 00:53:00,
2013-02-18 16:59:00,43.7,17.9,29.53,South,191,4.9,4.9,35,0.00,,---,0.00,VWS V14.01,2013-02-19 00:59:00,
2013-02-18 17:04:00,43.7,17.9,29.53,SW,224,3.6,4.0,35,0.00,,---,0.00,VWS V14.01,2013-02-19 01:04:00,
2013-02-18 17:09:00,43.7,17.9,29.53,SSW,204,2.2,3.1,35,0.00,,---,0.00,VWS V14.01,2013-02-19 01:09:00,
2013-02-18 17:15:00,43.5,17.7,29.53,SSW,200,2.7,4.0,35,0.00,,---,0.00,VWS V14.01,2013-02-19 01:15:00,
2013-02-18 17:20:00,43.5,18.4,29.53,SSE,167,3.1,4.0,36,0.00,,---,0.00,VWS V14.01,2013-02-19 01:20:00,
2013-02-18 17:26:00,43.3,18.2,29.53,South,190,0.0,4.0,36,0.00,,---,0.00,VWS V14.01,2013-02-19 01:26:00,
2013-02-18 17:31:00,43.3,18.8,29.50,South,186,2.7,4.0,37,0.00,,---,0.00,VWS V14.01,2013-02-19 01:31:00,
2013-02-18 17:36:00,43.2,18.7,29.50,SSW,198,3.6,3.6,37,0.00,,---,0.00,VWS V14.01,2013-02-19 01:36:00,
2013-02-18 17:41:00,43.0,17.9,29.50,SSW,204,4.0,4.0,36,0.00,,---,0.00,VWS V14.01,2013-02-19 01:41:00,
2013-02-18 17:47:00,43.0,17.2,29.50,SSW,194,3.6,4.9,35,0.00,,---,0.00,VWS V14.01,2013-02-19 01:47:00,
2013-02-18 17:52:00,43.0,17.9,29.50,SSW,208,2.7,3.6,36,0.00,,---,0.00,VWS V14.01,2013-02-19 01:52:00,
2013-02-18 17:58:00,43.0,17.9,29.50,SSW,209,4.0,5.4,36,0.00,,---,0.00,VWS V14.01,2013-02-19 01:58:00,
2013-02-18 18:05:00,43.0,17.2,29.50,WSW,239,4.0,5.8,35,0.00,,---,0.00,VWS V14.01,2013-02-19 02:05:00,
2013-02-18 18:10:00,43.0,17.2,29.50,SSW,195,4.0,5.4,35,0.00,,---,0.00,VWS V14.01,2013-02-19 02:10:00,
2013-02-18 18:16:00,42.8,17.1,29.50,South,191,2.7,4.0,35,0.00,,---,0.00,VWS V14.01,2013-02-19 02:16:00,
2013-02-18 18:21:00,42.8,17.1,29.50,SW,223,4.0,5.4,35,0.00,,---,0.00,VWS V14.01,2013-02-19 02:21:00,
2013-02-18 18:26:00,42.6,17.5,29.50,SW,215,4.0,4.0,36,0.00,,---,0.00,VWS V14.01,2013-02-19 02:26:00,
2013-02-18 18:31:00,42.6,17.5,29.50,SSW,210,4.0,4.9,36,0.00,,---,0.00,VWS V14.01,2013-02-19 02:31:00,
2013-02-18 18:37:00,42.6,17.5,29.50,SW,223,2.7,3.1,36,0.00,,---,0.00,VWS V14.01,2013-02-19 02:37:00,
2013-02-18 18:42:00,42.4,18.0,29.50,South,176,2.2,2.2,37,0.00,,---,0.00,VWS V14.01,2013-02-19 02:42:00,
2013-02-18 18:47:00,42.4,18.0,29.50,SSW,207,3.1,3.1,37,0.00,,---,0.00,VWS V14.01,2013-02-19 02:47:00,
2013-02-18 18:53:00,42.4,18.0,29.50,SSW,209,2.7,2.7,37,0.00,,---,0.00,VWS V14.01,2013-02-19 02:53:00,
2013-02-18 18:59:00,42.3,18.5,29.50,SSW,202,2.7,3.1,38,0.00,,---,0.00,VWS V14.01,2013-02-19 02:59:00,
2013-02-18 19:04:00,42.3,18.5,29.50,SSW,200,3.6,4.5,38,0.00,,---,0.00,VWS V14.01,2013-02-19 03:04:00,
2013-02-18 19:10:00,42.1,18.3,29.50,SSW,213,4.0,4.0,38,0.00,,---,0.00,VWS V14.01,2013-02-19 03:10:00,
2013-02-18 19:16:00,42.3,18.5,29.50,SSW,209,4.0,4.0,38,0.00,,---,0.00,VWS V14.01,2013-02-19 03:16:00,
2013-02-18 19:22:00,42.3,18.5,29.50,SSW,202,2.7,3.1,38,0.00,,---,0.00,VWS V14.01,2013-02-19 03:22:00,
2013-02-18 19:27:00,42.1,18.3,29.50,SSW,193,2.7,2.7,38,0.00,,---,0.00,VWS V14.01,2013-02-19 03:27:00,
2013-02-18 19:33:00,42.1,18.3,29.47,SSW,197,4.0,4.0,38,0.00,,---,0.00,VWS V14.01,2013-02-19 03:33:00,
2013-02-18 19:39:00,42.1,18.3,29.47,SSW,204,2.7,3.6,38,0.00,,---,0.00,VWS V14.01,2013-02-19 03:39:00,
2013-02-18 19:44:00,41.9,18.2,29.47,South,186,3.1,4.9,38,0.00,,---,0.00,VWS V14.01,2013-02-19 03:44:00,
2013-02-18 19:50:00,41.9,18.2,29.47,SSW,209,4.0,5.8,38,0.00,,---,0.00,VWS V14.01,2013-02-19 03:50:00,
2013-02-18 19:55:00,41.9,18.2,29.47,SSW,203,4.9,5.8,38,0.00,,---,0.00,VWS V14.01,2013-02-19 03:55:00,
2013-02-18 20:01:00,41.9,18.2,29.47,SSW,196,5.8,5.8,38,0.00,,---,0.00,VWS V14.01,2013-02-19 04:01:00,
2013-02-18 20:07:00,41.9,18.2,29.47,South,185,5.4,5.8,38,0.00,,---,0.00,VWS V14.01,2013-02-19 04:07:00,
2013-02-18 20:13:00,41.7,18.0,29.47,SSW,200,4.0,5.8,38,0.00,,---,0.00,VWS V14.01,2013-02-19 04:13:00,
2013-02-18 20:19:00,41.7,18.0,29.47,SSW,203,4.0,6.3,38,0.00,,---,0.00,VWS V14.01,2013-02-19 04:19:00,
2013-02-18 20:25:00,41.7,18.0,29.47,SW,223,4.9,4.9,38,0.00,,---,0.00,VWS V14.01,2013-02-19 04:25:00,
2013-02-18 20:30:00,41.7,18.0,29.47,SSW,207,4.0,6.3,38,0.00,,---,0.00,VWS V14.01,2013-02-19 04:30:00,
2013-02-18 20:36:00,41.5,17.8,29.47,SSW,210,4.0,4.9,38,0.00,,---,0.00,VWS V14.01,2013-02-19 04:36:00,
2013-02-18 20:41:00,41.5,18.4,29.47,SSW,193,4.0,4.9,39,0.00,,---,0.00,VWS V14.01,2013-02-19 04:41:00,
2013-02-18 20:46:00,41.5,18.4,29.47,SSW,207,4.9,4.9,39,0.00,,---,0.00,VWS V14.01,2013-02-19 04:46:00,
2013-02-18 20:52:00,41.4,18.3,29.47,SSW,211,4.0,4.9,39,0.00,,---,0.00,VWS V14.01,2013-02-19 04:52:00,
2013-02-18 20:57:00,41.2,18.1,29.47,SSW,198,2.7,3.1,39,0.00,,---,0.00,VWS V14.01,2013-02-19 04:57:00,
2013-02-18 21:00:00,41.2,18.1,29.47,SSW,199,4.0,4.0,39,0.00,,---,0.00,VWS V14.01,2013-02-19 05:00:00,
2013-02-18 21:03:00,41.0,18.0,29.47,SSW,196,2.7,4.0,39,0.00,,---,0.00,VWS V14.01,2013-02-19 05:03:00,
2013-02-18 21:04:00,41.0,18.0,29.47,SSW,196,3.1,3.1,39,0.00,,---,0.00,VWS V14.01,2013-02-19 05:04:00,
2013-02-18 21:08:00,41.0,18.0,29.47,SSW,192,3.6,3.6,39,0.00,,---,0.00,VWS V14.01,2013-02-19 05:08:00,
2013-02-18 21:14:00,40.8,18.4,29.47,South,184,3.1,3.1,40,0.00,,---,0.00,VWS V14.01,2013-02-19 05:14:00,
2013-02-18 21:19:00,40.8,18.4,29.47,South,190,2.2,3.1,40,0.00,,---,0.00,VWS V14.01,2013-02-19 05:19:00,
2013-02-18 21:25:00,40.6,18.2,29.47,South,187,3.1,3.6,40,0.00,,---,0.00,VWS V14.01,2013-02-19 05:25:00,
2013-02-18 21:30:00,40.5,18.1,29.47,South,187,0.0,0.0,40,0.00,,---,0.00,VWS V14.01,2013-02-19 05:30:00,
2013-02-18 21:36:00,40.3,17.9,29.47,SSW,195,3.6,3.6,40,0.00,,---,0.00,VWS V14.01,2013-02-19 05:36:00,
2013-02-18 21:42:00,40.5,18.1,29.47,SSW,204,3.6,4.0,40,0.00,,---,0.00,VWS V14.01,2013-02-19 05:42:00,
2013-02-18 21:47:00,40.6,18.2,29.47,SSW,208,4.0,4.0,40,0.00,,---,0.00,VWS V14.01,2013-02-19 05:47:00,
2013-02-18 21:53:00,40.8,18.4,29.47,SSW,207,3.6,4.0,40,0.00,,---,0.00,VWS V14.01,2013-02-19 05:53:00,
2013-02-18 21:59:00,41.0,18.0,29.47,SSW,197,3.1,4.0,39,0.00,,---,0.00,VWS V14.01,2013-02-19 05:59:00,
2013-02-18 22:04:00,40.8,18.4,29.47,SSW,205,3.6,4.0,40,0.00,,---,0.00,VWS V14.01,2013-02-19 06:04:00,
2013-02-18 22:10:00,40.8,18.4,29.47,South,187,3.1,3.6,40,0.00,,---,0.00,VWS V14.01,2013-02-19 06:10:00,
2013-02-18 22:15:00,40.8,18.4,29.44,South,183,0.0,3.1,40,0.00,,---,0.00,VWS V14.01,2013-02-19 06:15:00,
2013-02-18 22:21:00,40.8,18.4,29.44,SSW,202,2.7,3.6,40,0.00,,---,0.00,VWS V14.01,2013-02-19 06:21:00,
2013-02-18 22:27:00,40.5,18.1,29.44,South,189,0.0,2.7,40,0.00,,---,0.00,VWS V14.01,2013-02-19 06:27:00,
2013-02-18 22:32:00,40.5,18.1,29.44,South,179,2.7,2.7,40,0.00,,---,0.00,VWS V14.01,2013-02-19 06:32:00,
2013-02-18 22:38:00,40.3,17.9,29.44,SSW,204,4.0,5.8,40,0.00,,---,0.00,VWS V14.01,2013-02-19 06:38:00,
2013-02-18 22:43:00,40.3,17.9,29.44,SSW,202,4.0,4.9,40,0.00,,---,0.00,VWS V14.01,2013-02-19 06:43:00,
2013-02-18 22:49:00,40.3,17.9,29.44,SSW,208,4.9,5.8,40,0.00,,---,0.00,VWS V14.01,2013-02-19 06:49:00,
2013-02-18 22:55:00,40.3,17.9,29.44,SE,145,4.9,4.9,40,0.00,,---,0.00,VWS V14.01,2013-02-19 06:55:00,
2013-02-18 23:00:00,40.3,17.9,29.44,SSW,204,4.0,7.6,40,0.00,,---,0.00,VWS V14.01,2013-02-19 07:00:00,
2013-02-18 23:06:00,40.3,17.9,29.44,SSW,204,5.4,5.8,40,0.00,,---,0.00,VWS V14.01,2013-02-19 07:06:00,
2013-02-18 23:11:00,40.3,17.9,29.44,SSW,204,3.6,5.8,40,0.00,,---,0.00,VWS V14.01,2013-02-19 07:11:00,
2013-02-18 23:17:00,40.3,17.9,29.44,SSW,194,6.3,6.3,40,0.00,,---,0.00,VWS V14.01,2013-02-19 07:17:00,
2013-02-18 23:22:00,40.5,18.1,29.44,South,170,5.4,5.8,40,0.00,,---,0.00,VWS V14.01,2013-02-19 07:22:00,
2013-02-18 23:28:00,40.6,17.6,29.44,SSW,212,4.9,5.8,39,0.00,,---,0.00,VWS V14.01,2013-02-19 07:28:00,
2013-02-18 23:34:00,40.6,17.6,29.44,SW,216,5.4,5.4,39,0.00,,---,0.00,VWS V14.01,2013-02-19 07:34:00,
2013-02-18 23:39:00,40.5,17.5,29.44,SSW,205,0.0,0.0,39,0.00,,---,0.00,VWS V14.01,2013-02-19 07:39:00,
2013-02-18 23:45:00,40.5,17.5,29.44,SW,229,0.0,0.0,39,0.00,,---,0.00,VWS V14.01,2013-02-19 07:45:00,
2013-02-18 23:50:00,40.5,18.1,29.44,NNW,345,0.0,3.1,40,0.00,,---,0.00,VWS V14.01,2013-02-19 07:50:00,
2013-02-18 23:56:00,40.3,17.9,29.44,WNW,289,0.0,0.0,40,0.00,,---,0.00,VWS V14.01,2013-02-19 07:56:00,